sensor_id;sensor_type;location;lat;lon;timestamp;P1;P2;P0
78316;PMS7003;67572;50.930;18.276;2023-06-01T00:01:47;6.25;6.25;6.25
78316;PMS7003;67572;50.930;18.276;2023-06-01T00:04:50;10.25;8.50;6.25
78316;PMS7003;67572;50.930;18.276;2023-06-01T00:07:54;6.75;5.00;5.00
78316;PMS7003;67572;50.930;18.276;2023-06-01T00:10:57;3.50;3.50;3.50
78316;PMS7003;67572;50.930;18.276;2023-06-01T00:14:03;5.50;5.50;5.50
78316;PMS7003;67572;50.930;18.276;2023-06-01T00:17:06;4.50;4.50;4.50
78316;PMS7003;67572;50.930;18.276;2023-06-01T00:20:11;9.00;7.00;6.25
78316;PMS7003;67572;50.930;18.276;2023-06-01T00:23:15;5.00;5.00;5.00
78316;PMS7003;67572;50.930;18.276;2023-06-01T00:26:22;7.00;7.00;7.00
78316;PMS7003;67572;50.930;18.276;2023-06-01T00:29:27;6.00;5.50;5.50
78316;PMS7003;67572;50.930;18.276;2023-06-01T00:32:30;8.50;5.00;4.00
78316;PMS7003;67572;50.930;18.276;2023-06-01T00:35:34;8.00;6.00;6.00
78316;PMS7003;67572;50.930;18.276;2023-06-01T00:38:37;8.00;8.00;7.00
78316;PMS7003;67572;50.930;18.276;2023-06-01T00:41:41;7.00;7.00;7.00
78316;PMS7003;67572;50.930;18.276;2023-06-01T00:44:46;12.00;10.00;9.00
78316;PMS7003;67572;50.930;18.276;2023-06-01T00:47:50;12.00;10.00;10.00
78316;PMS7003;67572;50.930;18.276;2023-06-01T00:50:54;8.00;8.00;8.00
78316;PMS7003;67572;50.930;18.276;2023-06-01T00:53:59;10.00;10.00;9.75
78316;PMS7003;67572;50.930;18.276;2023-06-01T00:57:02;9.75;9.75;8.00
78316;PMS7003;67572;50.930;18.276;2023-06-01T01:00:10;15.25;14.50;13.00
78316;PMS7003;67572;50.930;18.276;2023-06-01T01:03:14;11.00;10.50;9.75
78316;PMS7003;67572;50.930;18.276;2023-06-01T01:06:21;12.50;9.25;8.50
78316;PMS7003;67572;50.930;18.276;2023-06-01T01:09:32;16.00;11.50;10.00
78316;PMS7003;67572;50.930;18.276;2023-06-01T01:12:44;12.75;10.00;10.00
78316;PMS7003;67572;50.930;18.276;2023-06-01T01:15:55;15.00;15.00;15.00
78316;PMS7003;67572;50.930;18.276;2023-06-01T01:19:07;13.00;12.50;11.50
78316;PMS7003;67572;50.930;18.276;2023-06-01T01:22:22;10.50;10.50;10.50
78316;PMS7003;67572;50.930;18.276;2023-06-01T01:25:48;14.50;14.50;14.50
78316;PMS7003;67572;50.930;18.276;2023-06-01T01:29:05;18.00;14.00;11.50
78316;PMS7003;67572;50.930;18.276;2023-06-01T01:32:12;15.75;12.50;11.50
78316;PMS7003;67572;50.930;18.276;2023-06-01T01:35:16;12.25;12.25;11.00
78316;PMS7003;67572;50.930;18.276;2023-06-01T01:38:20;9.00;6.50;6.00
78316;PMS7003;67572;50.930;18.276;2023-06-01T01:41:24;13.50;12.75;12.00
78316;PMS7003;67572;50.930;18.276;2023-06-01T01:44:29;14.50;11.00;10.00
78316;PMS7003;67572;50.930;18.276;2023-06-01T01:47:34;25.50;16.00;13.50
78316;PMS7003;67572;50.930;18.276;2023-06-01T01:50:52;14.50;12.75;12.00
78316;PMS7003;67572;50.930;18.276;2023-06-01T01:54:03;16.00;15.00;13.50
78316;PMS7003;67572;50.930;18.276;2023-06-01T01:57:08;12.25;12.25;12.00
78316;PMS7003;67572;50.930;18.276;2023-06-01T02:00:16;13.00;13.00;12.00
78316;PMS7003;67572;50.930;18.276;2023-06-01T02:03:20;16.00;13.00;12.50
78316;PMS7003;67572;50.930;18.276;2023-06-01T02:06:24;17.00;12.50;12.50
78316;PMS7003;67572;50.930;18.276;2023-06-01T02:09:27;17.75;14.50;14.00
78316;PMS7003;67572;50.930;18.276;2023-06-01T02:12:31;12.50;12.25;10.00
78316;PMS7003;67572;50.930;18.276;2023-06-01T02:15:35;11.75;10.00;10.00
78316;PMS7003;67572;50.930;18.276;2023-06-01T02:18:39;12.25;12.25;12.25
78316;PMS7003;67572;50.930;18.276;2023-06-01T02:21:43;15.00;13.00;12.00
78316;PMS7003;67572;50.930;18.276;2023-06-01T02:24:47;15.75;13.50;13.00
78316;PMS7003;67572;50.930;18.276;2023-06-01T02:27:50;19.00;15.50;15.00
78316;PMS7003;67572;50.930;18.276;2023-06-01T02:30:55;18.00;15.00;12.00
78316;PMS7003;67572;50.930;18.276;2023-06-01T02:33:58;15.75;14.50;12.75
78316;PMS7003;67572;50.930;18.276;2023-06-01T02:37:03;18.00;14.00;13.00
78316;PMS7003;67572;50.930;18.276;2023-06-01T02:40:07;14.50;13.00;12.25
78316;PMS7003;67572;50.930;18.276;2023-06-01T02:43:13;15.00;15.00;13.50
78316;PMS7003;67572;50.930;18.276;2023-06-01T02:46:19;15.00;14.00;12.75
78316;PMS7003;67572;50.930;18.276;2023-06-01T02:49:22;14.50;14.50;12.75
78316;PMS7003;67572;50.930;18.276;2023-06-01T02:52:26;17.00;14.50;13.25
78316;PMS7003;67572;50.930;18.276;2023-06-01T02:55:30;12.75;11.00;9.50
78316;PMS7003;67572;50.930;18.276;2023-06-01T02:59:03;13.00;11.25;10.50
78316;PMS7003;67572;50.930;18.276;2023-06-01T03:02:14;15.50;15.25;14.00
78316;PMS7003;67572;50.930;18.276;2023-06-01T03:05:18;18.50;15.25;13.50
78316;PMS7003;67572;50.930;18.276;2023-06-01T03:08:42;13.00;10.00;10.00
78316;PMS7003;67572;50.930;18.276;2023-06-01T03:12:06;17.75;13.75;13.75
78316;PMS7003;67572;50.930;18.276;2023-06-01T03:15:10;18.50;17.50;15.75
78316;PMS7003;67572;50.930;18.276;2023-06-01T03:18:15;14.00;14.00;13.00
78316;PMS7003;67572;50.930;18.276;2023-06-01T03:21:19;15.25;15.25;14.50
78316;PMS7003;67572;50.930;18.276;2023-06-01T03:24:22;18.00;15.75;15.00
78316;PMS7003;67572;50.930;18.276;2023-06-01T03:27:28;21.25;19.50;16.50
78316;PMS7003;67572;50.930;18.276;2023-06-01T03:30:31;22.50;16.00;13.00
78316;PMS7003;67572;50.930;18.276;2023-06-01T03:33:36;21.75;18.25;18.00
78316;PMS7003;67572;50.930;18.276;2023-06-01T03:36:40;18.00;18.00;17.00
78316;PMS7003;67572;50.930;18.276;2023-06-01T03:39:44;24.00;18.50;16.00
78316;PMS7003;67572;50.930;18.276;2023-06-01T03:42:47;20.25;19.00;17.50
78316;PMS7003;67572;50.930;18.276;2023-06-01T03:45:51;20.00;18.50;17.50
78316;PMS7003;67572;50.930;18.276;2023-06-01T03:48:56;23.50;18.50;17.00
78316;PMS7003;67572;50.930;18.276;2023-06-01T03:52:00;17.50;15.75;15.00
78316;PMS7003;67572;50.930;18.276;2023-06-01T03:55:05;21.25;17.00;15.50
78316;PMS7003;67572;50.930;18.276;2023-06-01T03:58:41;16.00;16.00;15.00
78316;PMS7003;67572;50.930;18.276;2023-06-01T04:01:46;16.00;16.00;15.00
78316;PMS7003;67572;50.930;18.276;2023-06-01T04:04:52;5.50;5.50;5.50
78316;PMS7003;67572;50.930;18.276;2023-06-01T04:07:56;21.00;18.25;16.50
78316;PMS7003;67572;50.930;18.276;2023-06-01T04:11:00;21.00;18.25;16.00
78316;PMS7003;67572;50.930;18.276;2023-06-01T04:14:04;21.00;19.50;17.50
78316;PMS7003;67572;50.930;18.276;2023-06-01T04:17:08;15.50;14.00;13.00
78316;PMS7003;67572;50.930;18.276;2023-06-01T04:20:19;18.75;17.50;15.00
78316;PMS7003;67572;50.930;18.276;2023-06-01T04:23:25;21.75;20.50;18.75
78316;PMS7003;67572;50.930;18.276;2023-06-01T04:26:28;20.25;19.25;15.75
78316;PMS7003;67572;50.930;18.276;2023-06-01T04:29:34;17.00;15.75;14.25
78316;PMS7003;67572;50.930;18.276;2023-06-01T04:32:42;19.00;19.00;16.00
78316;PMS7003;67572;50.930;18.276;2023-06-01T04:35:49;21.25;19.00;18.25
78316;PMS7003;67572;50.930;18.276;2023-06-01T04:38:55;20.50;16.00;14.25
78316;PMS7003;67572;50.930;18.276;2023-06-01T04:41:59;22.00;21.50;19.50
78316;PMS7003;67572;50.930;18.276;2023-06-01T04:45:03;19.50;18.25;18.00
78316;PMS7003;67572;50.930;18.276;2023-06-01T04:48:09;16.50;16.50;15.50
78316;PMS7003;67572;50.930;18.276;2023-06-01T04:51:21;17.00;16.50;15.00
78316;PMS7003;67572;50.930;18.276;2023-06-01T04:54:25;17.50;14.50;13.00
78316;PMS7003;67572;50.930;18.276;2023-06-01T04:57:29;22.25;20.75;17.00
78316;PMS7003;67572;50.930;18.276;2023-06-01T05:00:32;20.50;15.25;12.75
78316;PMS7003;67572;50.930;18.276;2023-06-01T05:03:36;18.50;18.50;16.00
78316;PMS7003;67572;50.930;18.276;2023-06-01T05:06:41;21.00;16.50;15.25
78316;PMS7003;67572;50.930;18.276;2023-06-01T05:09:44;21.00;19.00;18.50
78316;PMS7003;67572;50.930;18.276;2023-06-01T05:12:48;13.00;13.00;12.00
78316;PMS7003;67572;50.930;18.276;2023-06-01T05:15:52;15.50;15.00;14.50
78316;PMS7003;67572;50.930;18.276;2023-06-01T05:18:56;19.00;17.25;17.25
78316;PMS7003;67572;50.930;18.276;2023-06-01T05:22:01;18.00;18.00;16.50
78316;PMS7003;67572;50.930;18.276;2023-06-01T05:25:05;20.25;19.50;18.50
78316;PMS7003;67572;50.930;18.276;2023-06-01T05:28:09;15.67;14.33;12.67
78316;PMS7003;67572;50.930;18.276;2023-06-01T05:31:14;18.33;17.33;14.33
78316;PMS7003;67572;50.930;18.276;2023-06-01T05:34:23;16.00;13.00;12.00
78316;PMS7003;67572;50.930;18.276;2023-06-01T05:37:28;16.33;14.67;12.33
78316;PMS7003;67572;50.930;18.276;2023-06-01T05:40:32;17.67;16.00;14.33
78316;PMS7003;67572;50.930;18.276;2023-06-01T05:43:35;15.00;15.00;13.67
78316;PMS7003;67572;50.930;18.276;2023-06-01T05:46:40;20.00;18.33;16.00
78316;PMS7003;67572;50.930;18.276;2023-06-01T05:49:43;15.33;13.67;13.67
78316;PMS7003;67572;50.930;18.276;2023-06-01T05:52:49;24.67;19.67;19.67
78316;PMS7003;67572;50.930;18.276;2023-06-01T05:55:52;16.00;15.33;14.00
78316;PMS7003;67572;50.930;18.276;2023-06-01T05:58:56;12.33;11.67;11.00
78316;PMS7003;67572;50.930;18.276;2023-06-01T06:01:59;13.00;13.00;13.00
78316;PMS7003;67572;50.930;18.276;2023-06-01T06:05:03;18.67;16.33;14.67
78316;PMS7003;67572;50.930;18.276;2023-06-01T06:08:09;14.00;8.00;8.00
78316;PMS7003;67572;50.930;18.276;2023-06-01T06:11:12;16.33;15.00;15.00
78316;PMS7003;67572;50.930;18.276;2023-06-01T06:14:16;8.00;8.00;8.00
78316;PMS7003;67572;50.930;18.276;2023-06-01T06:17:19;15.67;14.67;13.33
78316;PMS7003;67572;50.930;18.276;2023-06-01T06:20:22;14.33;14.33;13.33
78316;PMS7003;67572;50.930;18.276;2023-06-01T06:23:27;7.33;7.33;5.67
78316;PMS7003;67572;50.930;18.276;2023-06-01T06:26:31;22.00;17.00;15.00
78316;PMS7003;67572;50.930;18.276;2023-06-01T06:29:35;17.67;15.67;14.33
78316;PMS7003;67572;50.930;18.276;2023-06-01T06:32:39;12.67;12.67;11.67
78316;PMS7003;67572;50.930;18.276;2023-06-01T06:35:42;16.00;14.33;13.33
78316;PMS7003;67572;50.930;18.276;2023-06-01T06:38:47;12.67;12.67;11.67
78316;PMS7003;67572;50.930;18.276;2023-06-01T06:41:51;23.67;22.33;20.67
78316;PMS7003;67572;50.930;18.276;2023-06-01T06:44:54;18.33;15.00;14.00
78316;PMS7003;67572;50.930;18.276;2023-06-01T06:47:59;15.67;13.67;13.00
78316;PMS7003;67572;50.930;18.276;2023-06-01T06:51:04;52.33;43.33;32.67
78316;PMS7003;67572;50.930;18.276;2023-06-01T06:54:09;11.00;10.00;10.00
78316;PMS7003;67572;50.930;18.276;2023-06-01T06:57:13;13.00;13.00;12.00
78316;PMS7003;67572;50.930;18.276;2023-06-01T07:00:17;9.67;9.67;9.33
78316;PMS7003;67572;50.930;18.276;2023-06-01T07:03:23;13.00;13.00;11.33
78316;PMS7003;67572;50.930;18.276;2023-06-01T07:06:28;9.33;9.33;9.33
78316;PMS7003;67572;50.930;18.276;2023-06-01T07:09:33;10.33;10.00;10.00
78316;PMS7003;67572;50.930;18.276;2023-06-01T07:12:36;18.33;15.67;14.67
78316;PMS7003;67572;50.930;18.276;2023-06-01T07:15:41;39.00;36.33;30.00
78316;PMS7003;67572;50.930;18.276;2023-06-01T07:18:44;11.67;11.67;10.33
78316;PMS7003;67572;50.930;18.276;2023-06-01T07:21:48;12.67;10.67;10.33
78316;PMS7003;67572;50.930;18.276;2023-06-01T07:24:53;14.67;13.00;13.00
78316;PMS7003;67572;50.930;18.276;2023-06-01T07:27:57;13.00;11.00;10.33
78316;PMS7003;67572;50.930;18.276;2023-06-01T07:31:01;15.00;15.00;14.00
78316;PMS7003;67572;50.930;18.276;2023-06-01T07:34:06;5.00;5.00;5.00
78316;PMS7003;67572;50.930;18.276;2023-06-01T07:37:09;9.00;9.00;9.00
78316;PMS7003;67572;50.930;18.276;2023-06-01T07:40:20;10.67;10.67;9.33
78316;PMS7003;67572;50.930;18.276;2023-06-01T07:43:24;9.00;9.00;9.00
78316;PMS7003;67572;50.930;18.276;2023-06-01T07:46:27;9.50;8.25;7.25
78316;PMS7003;67572;50.930;18.276;2023-06-01T07:49:31;6.00;6.00;6.00
78316;PMS7003;67572;50.930;18.276;2023-06-01T07:52:37;7.00;7.00;6.75
78316;PMS7003;67572;50.930;18.276;2023-06-01T07:55:42;9.00;6.50;6.50
78316;PMS7003;67572;50.930;18.276;2023-06-01T07:58:46;5.00;5.00;5.00
78316;PMS7003;67572;50.930;18.276;2023-06-01T08:01:50;6.50;5.75;5.75
78316;PMS7003;67572;50.930;18.276;2023-06-01T08:04:54;8.00;5.50;5.50
78316;PMS7003;67572;50.930;18.276;2023-06-01T08:07:58;5.50;5.50;5.50
78316;PMS7003;67572;50.930;18.276;2023-06-01T08:11:04;7.00;5.00;4.75
78316;PMS7003;67572;50.930;18.276;2023-06-01T08:14:08;5.50;5.50;5.50
78316;PMS7003;67572;50.930;18.276;2023-06-01T08:17:12;6.50;6.50;6.00
78316;PMS7003;67572;50.930;18.276;2023-06-01T08:20:16;8.00;8.00;7.75
78316;PMS7003;67572;50.930;18.276;2023-06-01T08:23:22;6.00;6.00;6.00
78316;PMS7003;67572;50.930;18.276;2023-06-01T08:26:27;6.00;6.00;6.00
78316;PMS7003;67572;50.930;18.276;2023-06-01T08:29:31;4.50;4.50;4.50
78316;PMS7003;67572;50.930;18.276;2023-06-01T08:32:43;7.20;4.20;4.20
78316;PMS7003;67572;50.930;18.276;2023-06-01T08:35:47;7.00;7.00;6.75
78316;PMS7003;67572;50.930;18.276;2023-06-01T08:38:53;4.00;3.60;3.60
78316;PMS7003;67572;50.930;18.276;2023-06-01T08:42:02;1.75;1.75;1.75
78316;PMS7003;67572;50.930;18.276;2023-06-01T08:45:12;6.00;6.00;6.00
78316;PMS7003;67572;50.930;18.276;2023-06-01T08:48:17;2.50;2.25;2.25
78316;PMS7003;67572;50.930;18.276;2023-06-01T08:51:26;4.00;4.00;3.80
78316;PMS7003;67572;50.930;18.276;2023-06-01T08:54:30;4.75;3.00;3.00
78316;PMS7003;67572;50.930;18.276;2023-06-01T08:57:37;3.50;3.50;3.00
78316;PMS7003;67572;50.930;18.276;2023-06-01T09:00:43;3.00;2.80;2.80
78316;PMS7003;67572;50.930;18.276;2023-06-01T09:03:51;3.60;3.00;3.00
78316;PMS7003;67572;50.930;18.276;2023-06-01T09:06:55;3.40;3.00;3.00
78316;PMS7003;67572;50.930;18.276;2023-06-01T09:09:58;2.00;2.00;2.00
78316;PMS7003;67572;50.930;18.276;2023-06-01T09:13:04;4.00;4.00;4.00
78316;PMS7003;67572;50.930;18.276;2023-06-01T09:16:07;2.00;2.00;2.00
78316;PMS7003;67572;50.930;18.276;2023-06-01T09:19:11;4.00;4.00;3.80
78316;PMS7003;67572;50.930;18.276;2023-06-01T09:22:15;6.20;4.00;4.00
78316;PMS7003;67572;50.930;18.276;2023-06-01T09:25:23;2.20;2.20;1.60
78316;PMS7003;67572;50.930;18.276;2023-06-01T09:28:30;3.40;3.40;3.40
78316;PMS7003;67572;50.930;18.276;2023-06-01T09:31:53;3.00;3.00;2.00
78316;PMS7003;67572;50.930;18.276;2023-06-01T09:34:57;6.00;4.00;4.00
78316;PMS7003;67572;50.930;18.276;2023-06-01T09:38:00;5.20;3.40;3.40
78316;PMS7003;67572;50.930;18.276;2023-06-01T09:41:08;4.80;3.20;3.20
78316;PMS7003;67572;50.930;18.276;2023-06-01T09:44:13;4.00;4.00;4.00
78316;PMS7003;67572;50.930;18.276;2023-06-01T09:47:17;2.20;2.20;2.20
78316;PMS7003;67572;50.930;18.276;2023-06-01T09:50:32;4.00;3.00;3.00
78316;PMS7003;67572;50.930;18.276;2023-06-01T09:53:40;1.60;1.60;1.40
78316;PMS7003;67572;50.930;18.276;2023-06-01T09:56:43;4.40;4.40;4.40
78316;PMS7003;67572;50.930;18.276;2023-06-01T09:59:49;4.80;4.00;4.00
78316;PMS7003;67572;50.930;18.276;2023-06-01T10:02:53;3.80;3.80;3.80
78316;PMS7003;67572;50.930;18.276;2023-06-01T10:05:58;5.00;5.00;4.00
78316;PMS7003;67572;50.930;18.276;2023-06-01T10:09:02;3.60;3.60;3.60
78316;PMS7003;67572;50.930;18.276;2023-06-01T10:12:10;7.00;3.40;3.40
78316;PMS7003;67572;50.930;18.276;2023-06-01T10:15:24;1.60;1.00;1.00
78316;PMS7003;67572;50.930;18.276;2023-06-01T10:18:35;6.20;6.20;6.20
78316;PMS7003;67572;50.930;18.276;2023-06-01T10:21:47;5.20;4.40;4.40
78316;PMS7003;67572;50.930;18.276;2023-06-01T10:24:53;4.00;2.60;2.60
78316;PMS7003;67572;50.930;18.276;2023-06-01T10:28:04;5.00;4.00;4.00
78316;PMS7003;67572;50.930;18.276;2023-06-01T10:35:02;1.80;1.80;1.40
78316;PMS7003;67572;50.930;18.276;2023-06-01T10:38:25;3.80;3.80;3.00
78316;PMS7003;67572;50.930;18.276;2023-06-01T10:41:29;3.00;3.00;3.00
78316;PMS7003;67572;50.930;18.276;2023-06-01T10:44:46;3.00;3.00;3.00
78316;PMS7003;67572;50.930;18.276;2023-06-01T10:47:52;4.20;4.00;4.00
78316;PMS7003;67572;50.930;18.276;2023-06-01T10:54:25;3.00;3.00;2.40
78316;PMS7003;67572;50.930;18.276;2023-06-01T10:57:31;3.40;3.40;3.00
78316;PMS7003;67572;50.930;18.276;2023-06-01T11:00:38;3.60;3.00;3.00
78316;PMS7003;67572;50.930;18.276;2023-06-01T11:08:07;2.80;2.00;2.00
78316;PMS7003;67572;50.930;18.276;2023-06-01T11:15:08;4.60;3.20;3.20
78316;PMS7003;67572;50.930;18.276;2023-06-01T11:22:00;5.40;5.40;5.40
78316;PMS7003;67572;50.930;18.276;2023-06-01T11:29:35;3.20;3.20;3.20
78316;PMS7003;67572;50.930;18.276;2023-06-01T11:33:03;2.00;2.00;2.00
78316;PMS7003;67572;50.930;18.276;2023-06-01T11:36:09;3.80;3.80;3.80
78316;PMS7003;67572;50.930;18.276;2023-06-01T11:39:17;5.00;4.00;4.00
78316;PMS7003;67572;50.930;18.276;2023-06-01T11:42:33;5.80;4.00;4.00
78316;PMS7003;67572;50.930;18.276;2023-06-01T11:50:24;3.40;2.20;2.20
78316;PMS7003;67572;50.930;18.276;2023-06-01T11:53:29;3.00;3.00;3.00
78316;PMS7003;67572;50.930;18.276;2023-06-01T11:56:34;1.00;1.00;1.00
78316;PMS7003;67572;50.930;18.276;2023-06-01T11:59:41;2.80;2.80;2.80
78316;PMS7003;67572;50.930;18.276;2023-06-01T12:02:47;2.00;2.00;2.00
78316;PMS7003;67572;50.930;18.276;2023-06-01T12:10:07;3.00;2.00;2.00
78316;PMS7003;67572;50.930;18.276;2023-06-01T12:18:06;1.80;1.20;1.20
78316;PMS7003;67572;50.930;18.276;2023-06-01T12:21:47;2.00;2.00;2.00
78316;PMS7003;67572;50.930;18.276;2023-06-01T12:24:53;2.20;1.60;1.60
78316;PMS7003;67572;50.930;18.276;2023-06-01T12:28:02;4.20;2.00;2.00
78316;PMS7003;67572;50.930;18.276;2023-06-01T12:31:07;4.20;3.00;3.00
78316;PMS7003;67572;50.930;18.276;2023-06-01T12:34:15;2.00;2.00;2.00
78316;PMS7003;67572;50.930;18.276;2023-06-01T12:37:21;1.60;1.00;1.00
78316;PMS7003;67572;50.930;18.276;2023-06-01T12:40:25;1.00;1.00;1.00
78316;PMS7003;67572;50.930;18.276;2023-06-01T12:43:29;1.60;1.00;1.00
78316;PMS7003;67572;50.930;18.276;2023-06-01T12:46:32;2.80;1.60;1.60
78316;PMS7003;67572;50.930;18.276;2023-06-01T12:49:37;1.80;1.00;1.00
78316;PMS7003;67572;50.930;18.276;2023-06-01T12:52:43;1.00;1.00;1.00
78316;PMS7003;67572;50.930;18.276;2023-06-01T12:55:47;0.00;0.00;0.00
78316;PMS7003;67572;50.930;18.276;2023-06-01T12:58:51;2.20;2.00;2.00
78316;PMS7003;67572;50.930;18.276;2023-06-01T13:01:55;2.00;1.60;1.60
78316;PMS7003;67572;50.930;18.276;2023-06-01T13:04:58;4.20;1.80;1.80
78316;PMS7003;67572;50.930;18.276;2023-06-01T13:08:03;0.60;0.60;0.60
78316;PMS7003;67572;50.930;18.276;2023-06-01T13:11:07;0.60;0.60;0.60
78316;PMS7003;67572;50.930;18.276;2023-06-01T13:14:10;3.00;2.00;2.00
78316;PMS7003;67572;50.930;18.276;2023-06-01T13:17:13;0.20;0.20;0.20
78316;PMS7003;67572;50.930;18.276;2023-06-01T13:20:17;0.80;0.80;0.80
78316;PMS7003;67572;50.930;18.276;2023-06-01T13:23:22;2.80;1.00;1.00
78316;PMS7003;67572;50.930;18.276;2023-06-01T13:26:26;1.20;1.20;1.20
78316;PMS7003;67572;50.930;18.276;2023-06-01T13:29:29;1.80;1.00;1.00
78316;PMS7003;67572;50.930;18.276;2023-06-01T13:32:33;1.00;1.00;1.00
78316;PMS7003;67572;50.930;18.276;2023-06-01T13:35:37;1.00;1.00;1.00
78316;PMS7003;67572;50.930;18.276;2023-06-01T13:38:42;0.00;0.00;0.00
78316;PMS7003;67572;50.930;18.276;2023-06-01T13:41:45;1.80;0.80;0.80
78316;PMS7003;67572;50.930;18.276;2023-06-01T13:44:49;1.00;1.00;1.00
78316;PMS7003;67572;50.930;18.276;2023-06-01T13:47:52;1.40;1.00;1.00
78316;PMS7003;67572;50.930;18.276;2023-06-01T13:50:57;1.20;0.80;0.80
78316;PMS7003;67572;50.930;18.276;2023-06-01T13:54:02;0.00;0.00;0.00
78316;PMS7003;67572;50.930;18.276;2023-06-01T13:57:06;0.80;0.80;0.80
78316;PMS7003;67572;50.930;18.276;2023-06-01T14:00:10;3.00;1.00;1.00
78316;PMS7003;67572;50.930;18.276;2023-06-01T14:03:18;0.60;0.60;0.60
78316;PMS7003;67572;50.930;18.276;2023-06-01T14:06:22;1.00;1.00;1.00
78316;PMS7003;67572;50.930;18.276;2023-06-01T14:09:26;2.00;1.00;1.00
78316;PMS7003;67572;50.930;18.276;2023-06-01T14:12:30;1.60;1.00;1.00
78316;PMS7003;67572;50.930;18.276;2023-06-01T14:15:34;1.80;1.00;1.00
78316;PMS7003;67572;50.930;18.276;2023-06-01T14:18:38;1.40;1.00;1.00
78316;PMS7003;67572;50.930;18.276;2023-06-01T14:21:41;1.00;1.00;1.00
78316;PMS7003;67572;50.930;18.276;2023-06-01T14:24:46;1.00;1.00;1.00
78316;PMS7003;67572;50.930;18.276;2023-06-01T14:27:50;1.00;1.00;1.00
78316;PMS7003;67572;50.930;18.276;2023-06-01T14:30:53;0.80;0.80;0.80
78316;PMS7003;67572;50.930;18.276;2023-06-01T14:33:57;1.00;1.00;1.00
78316;PMS7003;67572;50.930;18.276;2023-06-01T14:37:01;1.20;1.00;1.00
78316;PMS7003;67572;50.930;18.276;2023-06-01T14:40:08;1.00;1.00;1.00
78316;PMS7003;67572;50.930;18.276;2023-06-01T14:43:13;1.00;1.00;1.00
78316;PMS7003;67572;50.930;18.276;2023-06-01T14:46:16;1.00;1.00;1.00
78316;PMS7003;67572;50.930;18.276;2023-06-01T14:49:22;1.40;0.40;0.40
78316;PMS7003;67572;50.930;18.276;2023-06-01T14:52:39;1.60;1.60;1.60
78316;PMS7003;67572;50.930;18.276;2023-06-01T14:55:44;1.80;1.00;1.00
78316;PMS7003;67572;50.930;18.276;2023-06-01T14:58:51;1.00;1.00;1.00
78316;PMS7003;67572;50.930;18.276;2023-06-01T15:01:55;0.60;0.60;0.60
78316;PMS7003;67572;50.930;18.276;2023-06-01T15:04:58;0.80;0.60;0.60
78316;PMS7003;67572;50.930;18.276;2023-06-01T15:08:04;1.00;1.00;1.00
78316;PMS7003;67572;50.930;18.276;2023-06-01T15:11:10;1.60;1.60;1.60
78316;PMS7003;67572;50.930;18.276;2023-06-01T15:14:16;1.00;1.00;1.00
78316;PMS7003;67572;50.930;18.276;2023-06-01T15:17:19;2.80;2.60;2.60
78316;PMS7003;67572;50.930;18.276;2023-06-01T15:20:23;2.00;2.00;2.00
78316;PMS7003;67572;50.930;18.276;2023-06-01T15:23:27;3.40;3.40;3.40
78316;PMS7003;67572;50.930;18.276;2023-06-01T15:26:32;2.00;2.00;2.00
78316;PMS7003;67572;50.930;18.276;2023-06-01T15:29:37;1.20;1.00;1.00
78316;PMS7003;67572;50.930;18.276;2023-06-01T15:32:41;2.80;2.80;2.40
78316;PMS7003;67572;50.930;18.276;2023-06-01T15:35:51;2.00;2.00;2.00
78316;PMS7003;67572;50.930;18.276;2023-06-01T15:38:55;3.40;3.20;3.20
78316;PMS7003;67572;50.930;18.276;2023-06-01T15:42:00;2.80;2.80;2.00
78316;PMS7003;67572;50.930;18.276;2023-06-01T15:45:05;3.00;2.20;2.00
78316;PMS7003;67572;50.930;18.276;2023-06-01T15:48:09;3.40;3.00;3.00
78316;PMS7003;67572;50.930;18.276;2023-06-01T15:51:13;3.00;3.00;3.00
78316;PMS7003;67572;50.930;18.276;2023-06-01T15:54:16;3.60;2.60;2.60
78316;PMS7003;67572;50.930;18.276;2023-06-01T15:57:21;2.00;2.00;2.00
78316;PMS7003;67572;50.930;18.276;2023-06-01T16:00:27;2.00;2.00;2.00
78316;PMS7003;67572;50.930;18.276;2023-06-01T16:03:32;1.40;1.40;1.40
78316;PMS7003;67572;50.930;18.276;2023-06-01T16:06:36;3.40;2.00;2.00
78316;PMS7003;67572;50.930;18.276;2023-06-01T16:09:40;4.20;3.00;2.80
78316;PMS7003;67572;50.930;18.276;2023-06-01T16:12:45;1.00;1.00;1.00
78316;PMS7003;67572;50.930;18.276;2023-06-01T16:15:49;2.00;2.00;2.00
78316;PMS7003;67572;50.930;18.276;2023-06-01T16:18:52;1.80;1.80;1.60
78316;PMS7003;67572;50.930;18.276;2023-06-01T16:21:56;4.00;3.00;3.00
78316;PMS7003;67572;50.930;18.276;2023-06-01T16:25:00;2.80;2.80;2.80
78316;PMS7003;67572;50.930;18.276;2023-06-01T16:28:06;3.00;3.00;3.00
78316;PMS7003;67572;50.930;18.276;2023-06-01T16:31:09;3.00;3.00;2.80
78316;PMS7003;67572;50.930;18.276;2023-06-01T16:34:13;2.60;2.00;2.00
78316;PMS7003;67572;50.930;18.276;2023-06-01T16:37:16;3.00;2.00;2.00
78316;PMS7003;67572;50.930;18.276;2023-06-01T16:40:20;2.00;2.00;2.00
78316;PMS7003;67572;50.930;18.276;2023-06-01T16:43:25;3.00;2.00;2.00
78316;PMS7003;67572;50.930;18.276;2023-06-01T16:46:29;2.60;1.80;1.80
78316;PMS7003;67572;50.930;18.276;2023-06-01T16:49:33;2.20;2.20;2.20
78316;PMS7003;67572;50.930;18.276;2023-06-01T16:52:39;2.00;2.00;2.00
78316;PMS7003;67572;50.930;18.276;2023-06-01T16:55:43;2.80;2.40;2.20
78316;PMS7003;67572;50.930;18.276;2023-06-01T16:58:48;3.60;2.40;2.40
78316;PMS7003;67572;50.930;18.276;2023-06-01T17:01:52;2.60;2.20;2.20
78316;PMS7003;67572;50.930;18.276;2023-06-01T17:04:56;3.00;3.00;3.00
78316;PMS7003;67572;50.930;18.276;2023-06-01T17:08:00;2.80;2.80;2.40
78316;PMS7003;67572;50.930;18.276;2023-06-01T17:11:04;3.00;3.00;3.00
78316;PMS7003;67572;50.930;18.276;2023-06-01T17:14:09;6.80;5.00;4.00
78316;PMS7003;67572;50.930;18.276;2023-06-01T17:17:13;10.20;9.80;9.00
78316;PMS7003;67572;50.930;18.276;2023-06-01T17:20:18;3.00;3.00;3.00
78316;PMS7003;67572;50.930;18.276;2023-06-01T17:23:21;3.00;3.00;3.00
78316;PMS7003;67572;50.930;18.276;2023-06-01T17:26:25;2.40;2.40;2.40
78316;PMS7003;67572;50.930;18.276;2023-06-01T17:29:30;2.20;2.20;2.20
78316;PMS7003;67572;50.930;18.276;2023-06-01T17:32:35;5.00;4.00;4.00
78316;PMS7003;67572;50.930;18.276;2023-06-01T17:35:39;3.80;3.80;3.60
78316;PMS7003;67572;50.930;18.276;2023-06-01T17:38:42;6.60;5.80;5.80
78316;PMS7003;67572;50.930;18.276;2023-06-01T17:41:47;4.00;2.00;2.00
78316;PMS7003;67572;50.930;18.276;2023-06-01T17:44:53;2.80;2.80;2.80
78316;PMS7003;67572;50.930;18.276;2023-06-01T17:47:57;5.60;5.60;4.00
78316;PMS7003;67572;50.930;18.276;2023-06-01T17:51:01;4.00;2.80;2.80
78316;PMS7003;67572;50.930;18.276;2023-06-01T17:54:05;3.80;3.80;3.00
78316;PMS7003;67572;50.930;18.276;2023-06-01T17:57:09;6.80;6.80;5.20
78316;PMS7003;67572;50.930;18.276;2023-06-01T18:00:14;6.60;6.20;5.80
78316;PMS7003;67572;50.930;18.276;2023-06-01T18:03:20;7.40;6.20;6.00
78316;PMS7003;67572;50.930;18.276;2023-06-01T18:06:24;4.00;4.00;4.00
78316;PMS7003;67572;50.930;18.276;2023-06-01T18:09:28;4.00;4.00;4.00
78316;PMS7003;67572;50.930;18.276;2023-06-01T18:12:31;6.80;4.00;4.00